sensor_id;sensor_type;location;lat;lon;timestamp;temperature;humidity
13093;DHT22;6612;49.568;11.000;2023-01-29T00:01:51;3.40;50.80
13093;DHT22;6612;49.568;11.000;2023-01-29T00:04:18;3.50;50.80
13093;DHT22;6612;49.568;11.000;2023-01-29T00:06:45;3.50;50.80
13093;DHT22;6612;49.568;11.000;2023-01-29T00:09:12;3.50;51.50
13093;DHT22;6612;49.568;11.000;2023-01-29T00:11:39;3.50;50.90
13093;DHT22;6612;49.568;11.000;2023-01-29T00:16:34;3.50;50.40
13093;DHT22;6612;49.568;11.000;2023-01-29T00:19:03;3.50;51.00
13093;DHT22;6612;49.568;11.000;2023-01-29T00:21:30;3.50;50.90
13093;DHT22;6612;49.568;11.000;2023-01-29T00:26:26;3.50;50.30
13093;DHT22;6612;49.568;11.000;2023-01-29T00:28:53;3.50;50.60
13093;DHT22;6612;49.568;11.000;2023-01-29T00:31:22;3.70;50.70
13093;DHT22;6612;49.568;11.000;2023-01-29T00:36:20;3.40;49.90
13093;DHT22;6612;49.568;11.000;2023-01-29T00:38:47;3.40;50.50
13093;DHT22;6612;49.568;11.000;2023-01-29T00:41:25;3.40;50.60
13093;DHT22;6612;49.568;11.000;2023-01-29T00:44:09;3.30;50.60
13093;DHT22;6612;49.568;11.000;2023-01-29T00:46:53;3.30;50.60
13093;DHT22;6612;49.568;11.000;2023-01-29T00:49:20;3.30;50.60
13093;DHT22;6612;49.568;11.000;2023-01-29T00:51:49;3.30;50.70
13093;DHT22;6612;49.568;11.000;2023-01-29T00:54:29;3.30;50.70
13093;DHT22;6612;49.568;11.000;2023-01-29T00:56:56;3.20;51.20
13093;DHT22;6612;49.568;11.000;2023-01-29T00:59:23;3.30;50.50
13093;DHT22;6612;49.568;11.000;2023-01-29T01:01:50;3.30;50.60
13093;DHT22;6612;49.568;11.000;2023-01-29T01:04:34;3.20;50.60
13093;DHT22;6612;49.568;11.000;2023-01-29T01:07:02;3.20;50.50
13093;DHT22;6612;49.568;11.000;2023-01-29T01:09:30;3.20;50.60
13093;DHT22;6612;49.568;11.000;2023-01-29T01:12:14;3.20;50.60
13093;DHT22;6612;49.568;11.000;2023-01-29T01:14:41;3.20;50.70
13093;DHT22;6612;49.568;11.000;2023-01-29T01:17:09;3.10;50.60
13093;DHT22;6612;49.568;11.000;2023-01-29T01:19:36;3.20;50.60
13093;DHT22;6612;49.568;11.000;2023-01-29T01:22:04;3.10;50.60
13093;DHT22;6612;49.568;11.000;2023-01-29T01:24:31;3.20;50.60
13093;DHT22;6612;49.568;11.000;2023-01-29T01:26:58;3.10;50.40
13093;DHT22;6612;49.568;11.000;2023-01-29T01:29:25;3.10;50.40
13093;DHT22;6612;49.568;11.000;2023-01-29T01:31:52;3.10;50.50
13093;DHT22;6612;49.568;11.000;2023-01-29T01:34:20;3.10;50.60
13093;DHT22;6612;49.568;11.000;2023-01-29T01:36:47;3.10;50.60
13093;DHT22;6612;49.568;11.000;2023-01-29T01:39:15;3.00;50.40
13093;DHT22;6612;49.568;11.000;2023-01-29T01:41:42;3.00;50.30
13093;DHT22;6612;49.568;11.000;2023-01-29T01:47:09;3.00;50.10
13093;DHT22;6612;49.568;11.000;2023-01-29T01:49:36;3.00;50.50
13093;DHT22;6612;49.568;11.000;2023-01-29T01:52:03;3.00;50.60
13093;DHT22;6612;49.568;11.000;2023-01-29T01:54:32;3.00;50.60
13093;DHT22;6612;49.568;11.000;2023-01-29T01:57:01;3.00;50.60
13093;DHT22;6612;49.568;11.000;2023-01-29T01:59:35;3.00;50.70
13093;DHT22;6612;49.568;11.000;2023-01-29T02:02:03;3.00;50.80
13093;DHT22;6612;49.568;11.000;2023-01-29T02:04:47;2.90;50.80
13093;DHT22;6612;49.568;11.000;2023-01-29T02:07:32;3.00;50.80
13093;DHT22;6612;49.568;11.000;2023-01-29T02:10:19;3.00;50.90
13093;DHT22;6612;49.568;11.000;2023-01-29T02:12:47;2.90;50.20
13093;DHT22;6612;49.568;11.000;2023-01-29T02:15:14;3.00;50.80
13093;DHT22;6612;49.568;11.000;2023-01-29T02:17:41;3.00;50.70
13093;DHT22;6612;49.568;11.000;2023-01-29T02:20:17;2.90;50.50
13093;DHT22;6612;49.568;11.000;2023-01-29T02:22:56;3.00;50.20
13093;DHT22;6612;49.568;11.000;2023-01-29T02:25:49;3.00;51.10
13093;DHT22;6612;49.568;11.000;2023-01-29T02:28:31;3.00;50.10
13093;DHT22;6612;49.568;11.000;2023-01-29T02:31:08;3.00;50.30
13093;DHT22;6612;49.568;11.000;2023-01-29T02:33:47;3.00;50.40
13093;DHT22;6612;49.568;11.000;2023-01-29T02:36:23;3.00;50.40
13093;DHT22;6612;49.568;11.000;2023-01-29T02:39:00;2.90;50.30
13093;DHT22;6612;49.568;11.000;2023-01-29T02:41:34;2.90;50.20
13093;DHT22;6612;49.568;11.000;2023-01-29T02:44:13;2.90;50.30
13093;DHT22;6612;49.568;11.000;2023-01-29T02:46:47;2.90;50.30
13093;DHT22;6612;49.568;11.000;2023-01-29T02:49:23;2.90;50.40
13093;DHT22;6612;49.568;11.000;2023-01-29T02:51:58;2.90;50.30
13093;DHT22;6612;49.568;11.000;2023-01-29T02:54:32;2.80;50.40
13093;DHT22;6612;49.568;11.000;2023-01-29T02:57:09;2.80;50.30
13093;DHT22;6612;49.568;11.000;2023-01-29T02:59:47;2.80;50.20
13093;DHT22;6612;49.568;11.000;2023-01-29T03:02:19;2.80;50.30
13093;DHT22;6612;49.568;11.000;2023-01-29T03:04:54;2.80;50.30
13093;DHT22;6612;49.568;11.000;2023-01-29T03:07:27;2.80;50.40
13093;DHT22;6612;49.568;11.000;2023-01-29T03:10:15;2.80;50.30
13093;DHT22;6612;49.568;11.000;2023-01-29T03:12:43;2.80;50.10
13093;DHT22;6612;49.568;11.000;2023-01-29T03:15:19;2.70;50.50
13093;DHT22;6612;49.568;11.000;2023-01-29T03:17:53;2.70;50.40
13093;DHT22;6612;49.568;11.000;2023-01-29T03:20:22;2.70;50.30
13093;DHT22;6612;49.568;11.000;2023-01-29T03:22:54;2.80;49.80
13093;DHT22;6612;49.568;11.000;2023-01-29T03:25:23;2.70;50.40
13093;DHT22;6612;49.568;11.000;2023-01-29T03:28:11;2.70;50.40
13093;DHT22;6612;49.568;11.000;2023-01-29T03:30:59;2.70;50.40
13093;DHT22;6612;49.568;11.000;2023-01-29T03:33:48;2.70;50.40
13093;DHT22;6612;49.568;11.000;2023-01-29T03:36:18;2.70;50.30
13093;DHT22;6612;49.568;11.000;2023-01-29T03:38:45;2.70;50.40
13093;DHT22;6612;49.568;11.000;2023-01-29T03:41:20;2.60;50.40
13093;DHT22;6612;49.568;11.000;2023-01-29T03:43:53;2.60;50.60
13093;DHT22;6612;49.568;11.000;2023-01-29T03:46:26;2.60;50.80
13093;DHT22;6612;49.568;11.000;2023-01-29T03:49:00;2.70;50.90
13093;DHT22;6612;49.568;11.000;2023-01-29T03:51:36;2.70;50.80
13093;DHT22;6612;49.568;11.000;2023-01-29T03:54:08;2.70;50.90
13093;DHT22;6612;49.568;11.000;2023-01-29T03:56:49;2.90;51.10
13093;DHT22;6612;49.568;11.000;2023-01-29T03:59:29;2.80;50.60
13093;DHT22;6612;49.568;11.000;2023-01-29T04:01:59;2.80;50.50
13093;DHT22;6612;49.568;11.000;2023-01-29T04:04:29;2.80;51.10
13093;DHT22;6612;49.568;11.000;2023-01-29T04:07:03;4.40;52.30
13093;DHT22;6612;49.568;11.000;2023-01-29T04:09:35;2.90;51.00
13093;DHT22;6612;49.568;11.000;2023-01-29T04:12:07;2.90;51.00
13093;DHT22;6612;49.568;11.000;2023-01-29T04:14:35;2.90;51.00
13093;DHT22;6612;49.568;11.000;2023-01-29T04:17:11;2.90;50.90
13093;DHT22;6612;49.568;11.000;2023-01-29T04:19:39;2.90;50.60
13093;DHT22;6612;49.568;11.000;2023-01-29T04:22:11;2.90;50.70
13093;DHT22;6612;49.568;11.000;2023-01-29T04:24:41;2.90;50.60
13093;DHT22;6612;49.568;11.000;2023-01-29T04:27:20;2.90;50.50
13093;DHT22;6612;49.568;11.000;2023-01-29T04:29:56;2.90;50.30
13093;DHT22;6612;49.568;11.000;2023-01-29T04:32:31;2.90;50.40
13093;DHT22;6612;49.568;11.000;2023-01-29T04:35:09;2.90;50.40
13093;DHT22;6612;49.568;11.000;2023-01-29T04:37:46;2.90;50.40
13093;DHT22;6612;49.568;11.000;2023-01-29T04:40:19;2.90;50.60
13093;DHT22;6612;49.568;11.000;2023-01-29T04:42:54;2.90;50.10
13093;DHT22;6612;49.568;11.000;2023-01-29T04:45:29;2.90;50.70
13093;DHT22;6612;49.568;11.000;2023-01-29T04:48:05;2.90;50.80
13093;DHT22;6612;49.568;11.000;2023-01-29T04:50:38;2.90;50.80
13093;DHT22;6612;49.568;11.000;2023-01-29T04:53:12;2.90;50.90
13093;DHT22;6612;49.568;11.000;2023-01-29T04:55:44;2.90;50.70
13093;DHT22;6612;49.568;11.000;2023-01-29T04:58:17;3.00;50.80
13093;DHT22;6612;49.568;11.000;2023-01-29T05:00:48;2.90;51.40
13093;DHT22;6612;49.568;11.000;2023-01-29T05:03:17;2.90;50.70
13093;DHT22;6612;49.568;11.000;2023-01-29T05:05:47;2.90;50.30
13093;DHT22;6612;49.568;11.000;2023-01-29T05:08:18;2.90;50.70
13093;DHT22;6612;49.568;11.000;2023-01-29T05:10:48;2.90;50.80
13093;DHT22;6612;49.568;11.000;2023-01-29T05:13:17;2.90;50.80
13093;DHT22;6612;49.568;11.000;2023-01-29T05:15:49;2.90;50.80
13093;DHT22;6612;49.568;11.000;2023-01-29T05:18:19;2.90;50.80
13093;DHT22;6612;49.568;11.000;2023-01-29T05:20:47;2.90;50.80
13093;DHT22;6612;49.568;11.000;2023-01-29T05:23:15;2.90;50.80
13093;DHT22;6612;49.568;11.000;2023-01-29T05:25:42;3.00;50.90
13093;DHT22;6612;49.568;11.000;2023-01-29T05:28:10;3.00;50.90
13093;DHT22;6612;49.568;11.000;2023-01-29T05:30:42;3.00;50.80
13093;DHT22;6612;49.568;11.000;2023-01-29T05:33:12;3.00;50.70
13093;DHT22;6612;49.568;11.000;2023-01-29T05:35:40;3.00;50.60
13093;DHT22;6612;49.568;11.000;2023-01-29T05:38:08;2.90;50.50
13093;DHT22;6612;49.568;11.000;2023-01-29T05:40:35;3.00;50.70
13093;DHT22;6612;49.568;11.000;2023-01-29T05:43:02;3.00;50.80
13093;DHT22;6612;49.568;11.000;2023-01-29T05:45:30;3.00;50.90
13093;DHT22;6612;49.568;11.000;2023-01-29T05:47:57;2.90;50.80
13093;DHT22;6612;49.568;11.000;2023-01-29T05:50:25;3.00;50.90
13093;DHT22;6612;49.568;11.000;2023-01-29T05:52:57;2.90;49.80
13093;DHT22;6612;49.568;11.000;2023-01-29T05:55:24;3.00;50.50
13093;DHT22;6612;49.568;11.000;2023-01-29T05:57:50;3.00;50.60
13093;DHT22;6612;49.568;11.000;2023-01-29T06:00:18;2.90;50.60
13093;DHT22;6612;49.568;11.000;2023-01-29T06:02:45;3.00;50.20
13093;DHT22;6612;49.568;11.000;2023-01-29T06:05:12;2.90;50.60
13093;DHT22;6612;49.568;11.000;2023-01-29T06:07:39;2.90;50.70
13093;DHT22;6612;49.568;11.000;2023-01-29T06:10:12;2.90;50.70
13093;DHT22;6612;49.568;11.000;2023-01-29T06:12:39;2.90;50.40
13093;DHT22;6612;49.568;11.000;2023-01-29T06:15:07;2.90;50.80
13093;DHT22;6612;49.568;11.000;2023-01-29T06:17:34;2.90;50.80
13093;DHT22;6612;49.568;11.000;2023-01-29T06:20:01;2.90;50.80
13093;DHT22;6612;49.568;11.000;2023-01-29T06:22:28;3.00;50.90
13093;DHT22;6612;49.568;11.000;2023-01-29T06:24:54;3.00;50.90
13093;DHT22;6612;49.568;11.000;2023-01-29T06:27:23;3.00;50.70
13093;DHT22;6612;49.568;11.000;2023-01-29T06:29:50;3.00;50.70
13093;DHT22;6612;49.568;11.000;2023-01-29T06:32:17;3.00;50.80
13093;DHT22;6612;49.568;11.000;2023-01-29T06:34:43;2.90;50.70
13093;DHT22;6612;49.568;11.000;2023-01-29T06:37:10;3.00;50.90
13093;DHT22;6612;49.568;11.000;2023-01-29T06:39:37;2.90;50.80
13093;DHT22;6612;49.568;11.000;2023-01-29T06:42:04;3.00;50.90
13093;DHT22;6612;49.568;11.000;2023-01-29T06:44:33;3.00;51.00
13093;DHT22;6612;49.568;11.000;2023-01-29T06:47:00;3.00;51.70
13093;DHT22;6612;49.568;11.000;2023-01-29T06:49:27;3.00;51.00
13093;DHT22;6612;49.568;11.000;2023-01-29T06:51:55;3.00;51.10
13093;DHT22;6612;49.568;11.000;2023-01-29T06:54:21;3.10;51.20
13093;DHT22;6612;49.568;11.000;2023-01-29T06:56:48;3.10;51.10
13093;DHT22;6612;49.568;11.000;2023-01-29T06:59:15;3.10;51.10
13093;DHT22;6612;49.568;11.000;2023-01-29T07:01:43;3.10;51.10
13093;DHT22;6612;49.568;11.000;2023-01-29T07:04:10;3.10;51.00
13093;DHT22;6612;49.568;11.000;2023-01-29T07:06:37;3.10;51.10
13093;DHT22;6612;49.568;11.000;2023-01-29T07:09:04;3.20;51.20
13093;DHT22;6612;49.568;11.000;2023-01-29T07:11:33;3.20;51.20
13093;DHT22;6612;49.568;11.000;2023-01-29T07:14:00;3.20;51.20
13093;DHT22;6612;49.568;11.000;2023-01-29T07:16:26;3.20;51.20
13093;DHT22;6612;49.568;11.000;2023-01-29T07:18:55;3.20;51.80
13093;DHT22;6612;49.568;11.000;2023-01-29T07:21:22;3.20;51.80
13093;DHT22;6612;49.568;11.000;2023-01-29T07:23:49;3.40;51.40
13093;DHT22;6612;49.568;11.000;2023-01-29T07:26:16;3.20;51.20
13093;DHT22;6612;49.568;11.000;2023-01-29T07:28:43;3.20;51.90
13093;DHT22;6612;49.568;11.000;2023-01-29T07:31:12;3.30;51.30
13093;DHT22;6612;49.568;11.000;2023-01-29T07:33:39;3.30;51.40
13093;DHT22;6612;49.568;11.000;2023-01-29T07:36:08;3.40;51.40
13093;DHT22;6612;49.568;11.000;2023-01-29T07:38:35;3.40;51.40
13093;DHT22;6612;49.568;11.000;2023-01-29T07:41:03;3.50;51.50
13093;DHT22;6612;49.568;11.000;2023-01-29T07:43:30;3.40;51.30
13093;DHT22;6612;49.568;11.000;2023-01-29T07:46:01;3.50;51.40
13093;DHT22;6612;49.568;11.000;2023-01-29T07:48:28;3.50;51.30
13093;DHT22;6612;49.568;11.000;2023-01-29T07:50:55;3.50;52.00
13093;DHT22;6612;49.568;11.000;2023-01-29T07:53:25;3.60;51.40
13093;DHT22;6612;49.568;11.000;2023-01-29T07:55:52;3.60;51.40
13093;DHT22;6612;49.568;11.000;2023-01-29T07:58:19;4.90;52.40
13093;DHT22;6612;49.568;11.000;2023-01-29T08:00:46;3.70;51.30
13093;DHT22;6612;49.568;11.000;2023-01-29T08:03:15;3.70;51.30
13093;DHT22;6612;49.568;11.000;2023-01-29T08:05:42;3.60;51.10
13093;DHT22;6612;49.568;11.000;2023-01-29T08:08:10;3.70;51.20
13093;DHT22;6612;49.568;11.000;2023-01-29T08:10:39;3.70;51.10
13093;DHT22;6612;49.568;11.000;2023-01-29T08:13:07;3.80;51.20
13093;DHT22;6612;49.568;11.000;2023-01-29T08:15:34;3.70;51.10
13093;DHT22;6612;49.568;11.000;2023-01-29T08:18:01;3.70;51.10
13093;DHT22;6612;49.568;11.000;2023-01-29T08:20:28;3.80;51.10
13093;DHT22;6612;49.568;11.000;2023-01-29T08:22:59;3.80;50.20
13093;DHT22;6612;49.568;11.000;2023-01-29T08:25:27;3.80;51.10
13093;DHT22;6612;49.568;11.000;2023-01-29T08:27:57;3.80;51.30
13093;DHT22;6612;49.568;11.000;2023-01-29T08:30:24;3.90;51.30
13093;DHT22;6612;49.568;11.000;2023-01-29T08:32:51;4.00;50.80
13093;DHT22;6612;49.568;11.000;2023-01-29T08:35:18;3.90;51.50
13093;DHT22;6612;49.568;11.000;2023-01-29T08:37:51;4.00;51.60
13093;DHT22;6612;49.568;11.000;2023-01-29T08:40:18;4.00;51.50
13093;DHT22;6612;49.568;11.000;2023-01-29T08:42:45;4.10;51.20
13093;DHT22;6612;49.568;11.000;2023-01-29T08:45:14;4.20;51.80
13093;DHT22;6612;49.568;11.000;2023-01-29T08:47:44;4.20;51.70
13093;DHT22;6612;49.568;11.000;2023-01-29T08:52:38;4.50;51.60
13093;DHT22;6612;49.568;11.000;2023-01-29T08:55:06;4.40;51.80
13093;DHT22;6612;49.568;11.000;2023-01-29T08:57:33;4.50;51.80
13093;DHT22;6612;49.568;11.000;2023-01-29T09:00:00;4.50;51.70
13093;DHT22;6612;49.568;11.000;2023-01-29T09:02:28;4.70;51.80
13093;DHT22;6612;49.568;11.000;2023-01-29T09:04:55;4.70;51.70
13093;DHT22;6612;49.568;11.000;2023-01-29T09:09:49;4.90;51.20
13093;DHT22;6612;49.568;11.000;2023-01-29T09:12:16;5.00;51.50
13093;DHT22;6612;49.568;11.000;2023-01-29T09:14:43;4.90;51.30
13093;DHT22;6612;49.568;11.000;2023-01-29T09:17:10;5.10;52.10
13093;DHT22;6612;49.568;11.000;2023-01-29T09:19:38;5.10;51.20
13093;DHT22;6612;49.568;11.000;2023-01-29T09:22:05;5.30;51.20
13093;DHT22;6612;49.568;11.000;2023-01-29T09:24:32;5.20;51.10
13093;DHT22;6612;49.568;11.000;2023-01-29T09:26:59;5.30;51.00
13093;DHT22;6612;49.568;11.000;2023-01-29T09:29:26;5.30;51.00
13093;DHT22;6612;49.568;11.000;2023-01-29T09:31:53;5.40;51.40
13093;DHT22;6612;49.568;11.000;2023-01-29T09:34:20;5.40;51.00
13093;DHT22;6612;49.568;11.000;2023-01-29T09:36:50;5.50;51.50
13093;DHT22;6612;49.568;11.000;2023-01-29T09:39:17;5.50;50.70
13093;DHT22;6612;49.568;11.000;2023-01-29T09:41:50;5.50;50.70
13093;DHT22;6612;49.568;11.000;2023-01-29T09:44:23;5.60;51.20
13093;DHT22;6612;49.568;11.000;2023-01-29T09:46:55;5.60;50.60
13093;DHT22;6612;49.568;11.000;2023-01-29T09:49:25;5.70;50.70
13093;DHT22;6612;49.568;11.000;2023-01-29T09:51:59;5.70;50.60
13093;DHT22;6612;49.568;11.000;2023-01-29T09:54:31;5.80;50.60
13093;DHT22;6612;49.568;11.000;2023-01-29T09:56:59;5.80;50.60
13093;DHT22;6612;49.568;11.000;2023-01-29T09:59:29;5.90;50.70
13093;DHT22;6612;49.568;11.000;2023-01-29T10:02:08;5.90;50.40
13093;DHT22;6612;49.568;11.000;2023-01-29T10:05:07;6.00;50.40
13093;DHT22;6612;49.568;11.000;2023-01-29T10:08:03;6.10;50.10
13093;DHT22;6612;49.568;11.000;2023-01-29T10:10:43;6.20;50.40
13093;DHT22;6612;49.568;11.000;2023-01-29T10:13:19;6.40;51.20
13093;DHT22;6612;49.568;11.000;2023-01-29T10:16:06;6.50;51.30
13093;DHT22;6612;49.568;11.000;2023-01-29T10:18:53;6.60;50.60
13093;DHT22;6612;49.568;11.000;2023-01-29T10:21:43;6.70;50.40
13093;DHT22;6612;49.568;11.000;2023-01-29T10:24:23;6.90;49.70
13093;DHT22;6612;49.568;11.000;2023-01-29T10:26:51;6.90;49.50
13093;DHT22;6612;49.568;11.000;2023-01-29T10:29:19;6.90;49.70
13093;DHT22;6612;49.568;11.000;2023-01-29T10:31:51;6.90;49.40
13093;DHT22;6612;49.568;11.000;2023-01-29T10:34:26;6.90;48.80
13093;DHT22;6612;49.568;11.000;2023-01-29T10:36:55;6.90;49.10
13093;DHT22;6612;49.568;11.000;2023-01-29T10:39:25;6.90;49.40
13093;DHT22;6612;49.568;11.000;2023-01-29T10:41:58;6.90;49.10
13093;DHT22;6612;49.568;11.000;2023-01-29T10:44:36;6.90;49.60
13093;DHT22;6612;49.568;11.000;2023-01-29T10:47:32;6.90;48.70
13093;DHT22;6612;49.568;11.000;2023-01-29T10:50:23;6.90;49.50
13093;DHT22;6612;49.568;11.000;2023-01-29T10:55:58;6.90;48.60
13093;DHT22;6612;49.568;11.000;2023-01-29T10:58:35;7.00;49.20
13093;DHT22;6612;49.568;11.000;2023-01-29T11:01:03;7.00;49.10
13093;DHT22;6612;49.568;11.000;2023-01-29T11:03:31;7.10;49.40
13093;DHT22;6612;49.568;11.000;2023-01-29T11:06:07;7.30;49.50
13093;DHT22;6612;49.568;11.000;2023-01-29T11:08:39;7.10;48.90
13093;DHT22;6612;49.568;11.000;2023-01-29T11:11:12;7.20;49.10
13093;DHT22;6612;49.568;11.000;2023-01-29T11:13:42;7.20;48.70
13093;DHT22;6612;49.568;11.000;2023-01-29T11:16:11;7.20;48.60
13093;DHT22;6612;49.568;11.000;2023-01-29T11:18:55;7.30;48.80
13093;DHT22;6612;49.568;11.000;2023-01-29T11:21:23;7.30;48.00
13093;DHT22;6612;49.568;11.000;2023-01-29T11:24:04;7.30;48.70
13093;DHT22;6612;49.568;11.000;2023-01-29T11:26:36;7.30;47.90
13093;DHT22;6612;49.568;11.000;2023-01-29T11:29:04;7.30;48.40
13093;DHT22;6612;49.568;11.000;2023-01-29T11:31:35;7.30;49.20
13093;DHT22;6612;49.568;11.000;2023-01-29T11:34:05;7.40;48.30
13093;DHT22;6612;49.568;11.000;2023-01-29T11:36:34;7.30;48.30
13093;DHT22;6612;49.568;11.000;2023-01-29T11:39:13;7.40;48.20
13093;DHT22;6612;49.568;11.000;2023-01-29T11:41:48;7.40;48.60
13093;DHT22;6612;49.568;11.000;2023-01-29T11:44:20;7.40;48.00
13093;DHT22;6612;49.568;11.000;2023-01-29T11:46:47;7.50;48.10
13093;DHT22;6612;49.568;11.000;2023-01-29T11:49:30;7.50;48.30
13093;DHT22;6612;49.568;11.000;2023-01-29T11:51:59;7.50;47.90
13093;DHT22;6612;49.568;11.000;2023-01-29T11:54:30;7.50;48.10
13093;DHT22;6612;49.568;11.000;2023-01-29T11:57:00;7.50;48.00
13093;DHT22;6612;49.568;11.000;2023-01-29T11:59:39;7.50;47.90
13093;DHT22;6612;49.568;11.000;2023-01-29T12:02:18;7.50;47.40
13093;DHT22;6612;49.568;11.000;2023-01-29T12:04:46;7.60;47.60
13093;DHT22;6612;49.568;11.000;2023-01-29T12:07:15;7.50;47.90
13093;DHT22;6612;49.568;11.000;2023-01-29T12:09:48;7.60;47.80
13093;DHT22;6612;49.568;11.000;2023-01-29T12:12:27;7.60;48.10
13093;DHT22;6612;49.568;11.000;2023-01-29T12:15:24;7.60;47.20
13093;DHT22;6612;49.568;11.000;2023-01-29T12:17:57;7.60;46.80
13093;DHT22;6612;49.568;11.000;2023-01-29T12:20:30;7.60;47.50
13093;DHT22;6612;49.568;11.000;2023-01-29T12:23:04;7.60;48.20
13093;DHT22;6612;49.568;11.000;2023-01-29T12:25:39;7.60;47.50
13093;DHT22;6612;49.568;11.000;2023-01-29T12:28:18;7.60;47.40
13093;DHT22;6612;49.568;11.000;2023-01-29T12:30:58;7.50;47.60
13093;DHT22;6612;49.568;11.000;2023-01-29T12:33:37;7.60;47.10
13093;DHT22;6612;49.568;11.000;2023-01-29T12:36:12;7.50;46.90
13093;DHT22;6612;49.568;11.000;2023-01-29T12:38:40;7.50;47.00
13093;DHT22;6612;49.568;11.000;2023-01-29T12:41:19;7.60;47.40
13093;DHT22;6612;49.568;11.000;2023-01-29T12:43:52;7.50;46.90
13093;DHT22;6612;49.568;11.000;2023-01-29T12:46:22;7.50;47.10
13093;DHT22;6612;49.568;11.000;2023-01-29T12:48:53;7.50;47.20
13093;DHT22;6612;49.568;11.000;2023-01-29T12:51:25;7.40;47.10
13093;DHT22;6612;49.568;11.000;2023-01-29T12:53:58;7.50;47.00
13093;DHT22;6612;49.568;11.000;2023-01-29T12:56:28;7.40;47.10
13093;DHT22;6612;49.568;11.000;2023-01-29T12:59:00;7.50;47.30
13093;DHT22;6612;49.568;11.000;2023-01-29T13:01:32;7.40;47.30
13093;DHT22;6612;49.568;11.000;2023-01-29T13:04:03;7.60;47.60
13093;DHT22;6612;49.568;11.000;2023-01-29T13:06:37;7.60;47.40
13093;DHT22;6612;49.568;11.000;2023-01-29T13:09:10;7.60;46.70
13093;DHT22;6612;49.568;11.000;2023-01-29T13:11:40;7.50;47.10
13093;DHT22;6612;49.568;11.000;2023-01-29T13:14:19;7.60;47.00
13093;DHT22;6612;49.568;11.000;2023-01-29T13:16:49;7.60;46.70
13093;DHT22;6612;49.568;11.000;2023-01-29T13:19:22;7.60;47.00
13093;DHT22;6612;49.568;11.000;2023-01-29T13:21:53;7.50;46.70
13093;DHT22;6612;49.568;11.000;2023-01-29T13:24:22;7.50;46.60
13093;DHT22;6612;49.568;11.000;2023-01-29T13:26:50;7.40;46.90
13093;DHT22;6612;49.568;11.000;2023-01-29T13:29:22;7.40;46.60
13093;DHT22;6612;49.568;11.000;2023-01-29T13:31:50;7.40;46.40
13093;DHT22;6612;49.568;11.000;2023-01-29T13:34:22;7.30;46.40
13093;DHT22;6612;49.568;11.000;2023-01-29T13:36:51;7.30;46.20
13093;DHT22;6612;49.568;11.000;2023-01-29T13:39:23;7.20;46.20
13093;DHT22;6612;49.568;11.000;2023-01-29T13:41:51;7.10;46.00
13093;DHT22;6612;49.568;11.000;2023-01-29T13:44:26;7.10;46.20
13093;DHT22;6612;49.568;11.000;2023-01-29T13:46:58;7.00;45.90
13093;DHT22;6612;49.568;11.000;2023-01-29T13:49:33;6.90;46.70
13093;DHT22;6612;49.568;11.000;2023-01-29T13:52:20;6.80;45.90
13093;DHT22;6612;49.568;11.000;2023-01-29T13:54:52;6.80;45.80
13093;DHT22;6612;49.568;11.000;2023-01-29T14:03:51;6.70;46.00
13093;DHT22;6612;49.568;11.000;2023-01-29T14:06:48;6.60;45.90
13093;DHT22;6612;49.568;11.000;2023-01-29T14:12:41;6.50;46.00
13093;DHT22;6612;49.568;11.000;2023-01-29T14:15:24;6.50;46.80
13093;DHT22;6612;49.568;11.000;2023-01-29T14:17:59;6.50;46.50
13093;DHT22;6612;49.568;11.000;2023-01-29T14:20:33;6.40;46.50
13093;DHT22;6612;49.568;11.000;2023-01-29T14:23:02;6.40;46.60
13093;DHT22;6612;49.568;11.000;2023-01-29T14:25:33;6.40;46.80
13093;DHT22;6612;49.568;11.000;2023-01-29T14:28:02;6.30;46.80
13093;DHT22;6612;49.568;11.000;2023-01-29T14:30:31;6.30;46.90
13093;DHT22;6612;49.568;11.000;2023-01-29T14:33:01;6.30;46.90
13093;DHT22;6612;49.568;11.000;2023-01-29T14:35:32;6.30;46.90
13093;DHT22;6612;49.568;11.000;2023-01-29T14:38:01;6.30;46.90
13093;DHT22;6612;49.568;11.000;2023-01-29T14:40:29;6.20;46.90
13093;DHT22;6612;49.568;11.000;2023-01-29T14:43:00;6.20;47.00
13093;DHT22;6612;49.568;11.000;2023-01-29T14:45:29;6.20;46.90
13093;DHT22;6612;49.568;11.000;2023-01-29T14:51:05;6.10;46.50
13093;DHT22;6612;49.568;11.000;2023-01-29T14:53:44;6.10;46.60
13093;DHT22;6612;49.568;11.000;2023-01-29T14:56:25;6.10;46.60
13093;DHT22;6612;49.568;11.000;2023-01-29T14:58:58;6.00;46.80
13093;DHT22;6612;49.568;11.000;2023-01-29T15:01:31;5.90;46.70
13093;DHT22;6612;49.568;11.000;2023-01-29T15:04:02;5.60;46.00
13093;DHT22;6612;49.568;11.000;2023-01-29T15:06:39;5.80;46.70
13093;DHT22;6612;49.568;11.000;2023-01-29T15:09:12;5.70;46.60
13093;DHT22;6612;49.568;11.000;2023-01-29T15:11:48;5.60;46.70
13093;DHT22;6612;49.568;11.000;2023-01-29T15:14:29;5.60;47.40
13093;DHT22;6612;49.568;11.000;2023-01-29T15:17:06;5.60;46.70
13093;DHT22;6612;49.568;11.000;2023-01-29T15:19:44;5.50;46.80
13093;DHT22;6612;49.568;11.000;2023-01-29T15:22:14;5.50;47.00
13093;DHT22;6612;49.568;11.000;2023-01-29T15:24:43;5.30;46.90
13093;DHT22;6612;49.568;11.000;2023-01-29T15:27:14;5.30;47.10
13093;DHT22;6612;49.568;11.000;2023-01-29T15:29:43;5.20;46.70
13093;DHT22;6612;49.568;11.000;2023-01-29T15:32:15;5.20;47.20
13093;DHT22;6612;49.568;11.000;2023-01-29T15:37:28;5.10;46.70
13093;DHT22;6612;49.568;11.000;2023-01-29T15:39:55;5.00;47.10
13093;DHT22;6612;49.568;11.000;2023-01-29T15:42:22;4.90;47.20
13093;DHT22;6612;49.568;11.000;2023-01-29T15:44:51;4.90;47.30
13093;DHT22;6612;49.568;11.000;2023-01-29T15:47:21;4.80;47.30
13093;DHT22;6612;49.568;11.000;2023-01-29T15:49:48;4.80;47.40
13093;DHT22;6612;49.568;11.000;2023-01-29T15:52:19;4.70;47.40
13093;DHT22;6612;49.568;11.000;2023-01-29T15:54:48;4.60;47.40
13093;DHT22;6612;49.568;11.000;2023-01-29T15:57:22;4.60;47.50
13093;DHT22;6612;49.568;11.000;2023-01-29T15:59:51;4.50;47.40
13093;DHT22;6612;49.568;11.000;2023-01-29T16:02:38;4.50;47.60
13093;DHT22;6612;49.568;11.000;2023-01-29T16:05:09;4.40;47.50
13093;DHT22;6612;49.568;11.000;2023-01-29T16:07:37;4.30;47.60
13093;DHT22;6612;49.568;11.000;2023-01-29T16:10:12;4.20;47.50
13093;DHT22;6612;49.568;11.000;2023-01-29T16:12:40;4.10;47.20
13093;DHT22;6612;49.568;11.000;2023-01-29T16:15:14;4.10;47.80
13093;DHT22;6612;49.568;11.000;2023-01-29T16:17:44;4.10;47.80
13093;DHT22;6612;49.568;11.000;2023-01-29T16:20:26;4.00;47.90
13093;DHT22;6612;49.568;11.000;2023-01-29T16:22:55;4.00;47.70
13093;DHT22;6612;49.568;11.000;2023-01-29T16:25:23;3.90;48.00
13093;DHT22;6612;49.568;11.000;2023-01-29T16:27:51;3.80;48.00
13093;DHT22;6612;49.568;11.000;2023-01-29T16:30:18;3.80;48.10
13093;DHT22;6612;49.568;11.000;2023-01-29T16:35:14;3.60;47.60
13093;DHT22;6612;49.568;11.000;2023-01-29T16:37:46;3.60;48.20
13093;DHT22;6612;49.568;11.000;2023-01-29T16:40:20;3.50;48.30
13093;DHT22;6612;49.568;11.000;2023-01-29T16:46:00;3.40;48.50
13093;DHT22;6612;49.568;11.000;2023-01-29T16:48:31;3.40;48.50
13093;DHT22;6612;49.568;11.000;2023-01-29T16:51:03;3.30;48.50
13093;DHT22;6612;49.568;11.000;2023-01-29T16:53:30;3.30;48.70